sensor_id;sensor_type;location;lat;lon;timestamp;temperature;humidity
12013;DHT22;6065;48.138;16.402;2022-08-19T00:01:35;26.10;84.30
12013;DHT22;6065;48.138;16.402;2022-08-19T00:04:03;26.10;84.20
12013;DHT22;6065;48.138;16.402;2022-08-19T00:06:30;26.10;84.30
12013;DHT22;6065;48.138;16.402;2022-08-19T00:08:56;26.10;84.40
12013;DHT22;6065;48.138;16.402;2022-08-19T00:11:25;26.10;84.40
12013;DHT22;6065;48.138;16.402;2022-08-19T00:13:54;26.00;84.50
12013;DHT22;6065;48.138;16.402;2022-08-19T00:16:22;26.00;84.80
12013;DHT22;6065;48.138;16.402;2022-08-19T00:18:48;25.90;85.00
12013;DHT22;6065;48.138;16.402;2022-08-19T00:21:15;26.00;85.20
12013;DHT22;6065;48.138;16.402;2022-08-19T00:23:43;25.90;85.20
12013;DHT22;6065;48.138;16.402;2022-08-19T00:26:10;25.90;85.30
12013;DHT22;6065;48.138;16.402;2022-08-19T00:28:37;25.90;85.60
12013;DHT22;6065;48.138;16.402;2022-08-19T00:31:06;25.90;85.80
12013;DHT22;6065;48.138;16.402;2022-08-19T00:33:34;25.80;85.90
12013;DHT22;6065;48.138;16.402;2022-08-19T00:36:02;25.80;86.10
12013;DHT22;6065;48.138;16.402;2022-08-19T00:38:29;25.80;86.10
12013;DHT22;6065;48.138;16.402;2022-08-19T00:40:57;25.70;86.10
12013;DHT22;6065;48.138;16.402;2022-08-19T00:43:24;25.70;86.00
12013;DHT22;6065;48.138;16.402;2022-08-19T00:45:52;25.70;86.00
12013;DHT22;6065;48.138;16.402;2022-08-19T00:48:20;25.70;86.10
12013;DHT22;6065;48.138;16.402;2022-08-19T00:50:47;25.60;86.40
12013;DHT22;6065;48.138;16.402;2022-08-19T00:53:15;25.60;87.00
12013;DHT22;6065;48.138;16.402;2022-08-19T00:55:45;25.50;85.60
12013;DHT22;6065;48.138;16.402;2022-08-19T00:58:13;25.50;85.60
12013;DHT22;6065;48.138;16.402;2022-08-19T01:00:42;25.50;85.70
12013;DHT22;6065;48.138;16.402;2022-08-19T01:03:10;25.40;86.10
12013;DHT22;6065;48.138;16.402;2022-08-19T01:05:39;25.40;86.50
12013;DHT22;6065;48.138;16.402;2022-08-19T01:08:07;25.50;86.40
12013;DHT22;6065;48.138;16.402;2022-08-19T01:10:36;25.50;86.60
12013;DHT22;6065;48.138;16.402;2022-08-19T01:13:03;25.50;86.60
12013;DHT22;6065;48.138;16.402;2022-08-19T01:15:31;25.50;86.70
12013;DHT22;6065;48.138;16.402;2022-08-19T01:17:58;25.40;86.90
12013;DHT22;6065;48.138;16.402;2022-08-19T01:20:26;25.30;87.30
12013;DHT22;6065;48.138;16.402;2022-08-19T01:22:55;25.30;87.60
12013;DHT22;6065;48.138;16.402;2022-08-19T01:25:22;25.30;87.80
12013;DHT22;6065;48.138;16.402;2022-08-19T01:27:51;25.30;88.00
12013;DHT22;6065;48.138;16.402;2022-08-19T01:30:20;25.20;88.00
12013;DHT22;6065;48.138;16.402;2022-08-19T01:32:47;25.20;88.20
12013;DHT22;6065;48.138;16.402;2022-08-19T01:35:14;25.20;88.30
12013;DHT22;6065;48.138;16.402;2022-08-19T01:37:44;25.10;88.40
12013;DHT22;6065;48.138;16.402;2022-08-19T01:40:13;25.10;88.80
12013;DHT22;6065;48.138;16.402;2022-08-19T01:42:40;25.00;88.90
12013;DHT22;6065;48.138;16.402;2022-08-19T01:45:07;25.00;88.90
12013;DHT22;6065;48.138;16.402;2022-08-19T01:47:34;25.00;89.30
12013;DHT22;6065;48.138;16.402;2022-08-19T01:50:01;24.90;89.60
12013;DHT22;6065;48.138;16.402;2022-08-19T01:52:28;24.90;89.70
12013;DHT22;6065;48.138;16.402;2022-08-19T01:54:54;24.80;89.40
12013;DHT22;6065;48.138;16.402;2022-08-19T01:57:23;24.80;89.30
12013;DHT22;6065;48.138;16.402;2022-08-19T01:59:49;24.90;89.30
12013;DHT22;6065;48.138;16.402;2022-08-19T02:02:17;24.90;89.30
12013;DHT22;6065;48.138;16.402;2022-08-19T02:04:44;24.90;88.70
12013;DHT22;6065;48.138;16.402;2022-08-19T02:07:12;24.90;88.90
12013;DHT22;6065;48.138;16.402;2022-08-19T02:09:39;24.90;89.00
12013;DHT22;6065;48.138;16.402;2022-08-19T02:12:06;24.90;89.20
12013;DHT22;6065;48.138;16.402;2022-08-19T02:14:35;24.90;89.70
12013;DHT22;6065;48.138;16.402;2022-08-19T02:17:02;24.90;90.40
12013;DHT22;6065;48.138;16.402;2022-08-19T02:19:29;24.90;90.70
12013;DHT22;6065;48.138;16.402;2022-08-19T02:21:57;24.90;90.90
12013;DHT22;6065;48.138;16.402;2022-08-19T02:24:24;24.90;91.00
12013;DHT22;6065;48.138;16.402;2022-08-19T02:26:53;25.00;90.50
12013;DHT22;6065;48.138;16.402;2022-08-19T02:29:20;24.80;90.30
12013;DHT22;6065;48.138;16.402;2022-08-19T02:31:48;24.70;90.50
12013;DHT22;6065;48.138;16.402;2022-08-19T02:34:15;24.80;90.10
12013;DHT22;6065;48.138;16.402;2022-08-19T02:36:42;24.80;89.90
12013;DHT22;6065;48.138;16.402;2022-08-19T02:39:09;24.90;89.80
12013;DHT22;6065;48.138;16.402;2022-08-19T02:41:34;24.90;89.90
12013;DHT22;6065;48.138;16.402;2022-08-19T02:44:02;25.00;89.80
12013;DHT22;6065;48.138;16.402;2022-08-19T02:46:30;25.00;90.30
12013;DHT22;6065;48.138;16.402;2022-08-19T02:48:59;25.00;90.10
12013;DHT22;6065;48.138;16.402;2022-08-19T02:51:27;25.00;90.20
12013;DHT22;6065;48.138;16.402;2022-08-19T02:53:54;25.00;90.30
12013;DHT22;6065;48.138;16.402;2022-08-19T02:56:22;25.00;90.50
12013;DHT22;6065;48.138;16.402;2022-08-19T02:58:49;25.10;90.60
12013;DHT22;6065;48.138;16.402;2022-08-19T03:01:20;25.10;90.70
12013;DHT22;6065;48.138;16.402;2022-08-19T03:03:47;25.10;90.90
12013;DHT22;6065;48.138;16.402;2022-08-19T03:06:15;25.00;91.10
12013;DHT22;6065;48.138;16.402;2022-08-19T03:08:42;25.00;91.20
12013;DHT22;6065;48.138;16.402;2022-08-19T03:11:13;25.00;91.30
12013;DHT22;6065;48.138;16.402;2022-08-19T03:13:40;25.00;91.30
12013;DHT22;6065;48.138;16.402;2022-08-19T03:16:08;25.10;91.40
12013;DHT22;6065;48.138;16.402;2022-08-19T03:18:35;25.10;91.50
12013;DHT22;6065;48.138;16.402;2022-08-19T03:21:02;25.10;91.60
12013;DHT22;6065;48.138;16.402;2022-08-19T03:23:30;25.10;91.80
12013;DHT22;6065;48.138;16.402;2022-08-19T03:25:57;25.00;92.00
12013;DHT22;6065;48.138;16.402;2022-08-19T03:28:24;25.00;92.30
12013;DHT22;6065;48.138;16.402;2022-08-19T03:30:57;24.90;92.70
12013;DHT22;6065;48.138;16.402;2022-08-19T03:33:24;24.90;92.90
12013;DHT22;6065;48.138;16.402;2022-08-19T03:36:03;24.90;93.20
12013;DHT22;6065;48.138;16.402;2022-08-19T03:38:31;24.90;93.40
12013;DHT22;6065;48.138;16.402;2022-08-19T03:41:01;24.80;93.70
12013;DHT22;6065;48.138;16.402;2022-08-19T03:43:28;24.70;93.80
12013;DHT22;6065;48.138;16.402;2022-08-19T03:45:59;24.60;94.20
12013;DHT22;6065;48.138;16.402;2022-08-19T03:48:26;24.60;94.00
12013;DHT22;6065;48.138;16.402;2022-08-19T03:50:52;24.60;94.10
12013;DHT22;6065;48.138;16.402;2022-08-19T03:53:19;24.50;94.00
12013;DHT22;6065;48.138;16.402;2022-08-19T03:55:50;24.50;94.00
12013;DHT22;6065;48.138;16.402;2022-08-19T03:58:17;24.50;94.10
12013;DHT22;6065;48.138;16.402;2022-08-19T04:00:44;24.50;93.80
12013;DHT22;6065;48.138;16.402;2022-08-19T04:03:10;24.50;93.80
12013;DHT22;6065;48.138;16.402;2022-08-19T04:05:37;24.50;93.80
12013;DHT22;6065;48.138;16.402;2022-08-19T04:08:04;24.50;93.90
12013;DHT22;6065;48.138;16.402;2022-08-19T04:10:31;24.50;93.90
12013;DHT22;6065;48.138;16.402;2022-08-19T04:12:59;24.60;94.00
12013;DHT22;6065;48.138;16.402;2022-08-19T04:15:26;24.50;94.10
12013;DHT22;6065;48.138;16.402;2022-08-19T04:17:54;24.50;94.20
12013;DHT22;6065;48.138;16.402;2022-08-19T04:20:20;24.50;94.20
12013;DHT22;6065;48.138;16.402;2022-08-19T04:22:47;24.50;94.20
12013;DHT22;6065;48.138;16.402;2022-08-19T04:25:14;24.60;94.20
12013;DHT22;6065;48.138;16.402;2022-08-19T04:27:41;24.60;94.20
12013;DHT22;6065;48.138;16.402;2022-08-19T04:30:13;24.70;94.20
12013;DHT22;6065;48.138;16.402;2022-08-19T04:32:40;24.70;94.10
12013;DHT22;6065;48.138;16.402;2022-08-19T04:35:08;24.70;94.10
12013;DHT22;6065;48.138;16.402;2022-08-19T04:37:35;24.80;94.10
12013;DHT22;6065;48.138;16.402;2022-08-19T04:40:05;24.80;94.00
12013;DHT22;6065;48.138;16.402;2022-08-19T04:42:50;24.80;94.00
12013;DHT22;6065;48.138;16.402;2022-08-19T04:45:18;24.90;94.00
12013;DHT22;6065;48.138;16.402;2022-08-19T04:47:45;24.90;93.90
12013;DHT22;6065;48.138;16.402;2022-08-19T04:50:12;24.90;94.20
12013;DHT22;6065;48.138;16.402;2022-08-19T04:52:39;24.90;94.00
12013;DHT22;6065;48.138;16.402;2022-08-19T04:55:08;24.90;94.10
12013;DHT22;6065;48.138;16.402;2022-08-19T04:57:35;24.90;94.10
12013;DHT22;6065;48.138;16.402;2022-08-19T05:00:06;24.90;94.30
12013;DHT22;6065;48.138;16.402;2022-08-19T05:02:34;24.90;94.40
12013;DHT22;6065;48.138;16.402;2022-08-19T05:05:01;24.90;94.40
12013;DHT22;6065;48.138;16.402;2022-08-19T05:07:28;24.90;94.50
12013;DHT22;6065;48.138;16.402;2022-08-19T05:09:56;24.90;94.50
12013;DHT22;6065;48.138;16.402;2022-08-19T05:12:22;24.90;94.60
12013;DHT22;6065;48.138;16.402;2022-08-19T05:14:49;24.90;94.70
12013;DHT22;6065;48.138;16.402;2022-08-19T05:17:17;24.90;94.50
12013;DHT22;6065;48.138;16.402;2022-08-19T05:19:45;24.90;94.50
12013;DHT22;6065;48.138;16.402;2022-08-19T05:22:29;25.00;94.40
12013;DHT22;6065;48.138;16.402;2022-08-19T05:25:02;25.00;94.40
12013;DHT22;6065;48.138;16.402;2022-08-19T05:27:29;25.00;94.40
12013;DHT22;6065;48.138;16.402;2022-08-19T05:29:55;25.10;94.40
12013;DHT22;6065;48.138;16.402;2022-08-19T05:32:22;25.10;94.30
12013;DHT22;6065;48.138;16.402;2022-08-19T05:34:51;25.20;94.30
12013;DHT22;6065;48.138;16.402;2022-08-19T05:37:17;25.20;94.20
12013;DHT22;6065;48.138;16.402;2022-08-19T05:39:44;25.20;94.30
12013;DHT22;6065;48.138;16.402;2022-08-19T05:42:11;25.10;94.30
12013;DHT22;6065;48.138;16.402;2022-08-19T05:44:39;25.10;94.50
12013;DHT22;6065;48.138;16.402;2022-08-19T05:47:09;25.10;94.60
12013;DHT22;6065;48.138;16.402;2022-08-19T05:49:36;25.10;95.10
12013;DHT22;6065;48.138;16.402;2022-08-19T05:52:06;25.10;94.80
12013;DHT22;6065;48.138;16.402;2022-08-19T05:54:33;25.10;94.90
12013;DHT22;6065;48.138;16.402;2022-08-19T05:57:01;25.10;95.00
12013;DHT22;6065;48.138;16.402;2022-08-19T05:59:28;25.10;95.00
12013;DHT22;6065;48.138;16.402;2022-08-19T06:01:54;25.10;95.00
12013;DHT22;6065;48.138;16.402;2022-08-19T06:04:22;25.10;95.10
12013;DHT22;6065;48.138;16.402;2022-08-19T06:06:50;25.10;95.10
12013;DHT22;6065;48.138;16.402;2022-08-19T06:09:19;25.10;95.10
12013;DHT22;6065;48.138;16.402;2022-08-19T06:11:47;25.10;95.20
12013;DHT22;6065;48.138;16.402;2022-08-19T06:14:16;25.10;95.30
12013;DHT22;6065;48.138;16.402;2022-08-19T06:16:44;25.10;95.30
12013;DHT22;6065;48.138;16.402;2022-08-19T06:19:11;25.10;95.20
12013;DHT22;6065;48.138;16.402;2022-08-19T06:21:39;25.10;95.20
12013;DHT22;6065;48.138;16.402;2022-08-19T06:24:06;25.10;95.10
12013;DHT22;6065;48.138;16.402;2022-08-19T06:26:35;25.10;95.40
12013;DHT22;6065;48.138;16.402;2022-08-19T06:29:02;25.10;95.10
12013;DHT22;6065;48.138;16.402;2022-08-19T06:31:31;25.10;95.20
12013;DHT22;6065;48.138;16.402;2022-08-19T06:33:59;25.20;95.20
12013;DHT22;6065;48.138;16.402;2022-08-19T06:36:27;25.20;95.30
12013;DHT22;6065;48.138;16.402;2022-08-19T06:38:57;25.20;95.20
12013;DHT22;6065;48.138;16.402;2022-08-19T06:41:24;25.20;95.30
12013;DHT22;6065;48.138;16.402;2022-08-19T06:43:53;25.20;95.30
12013;DHT22;6065;48.138;16.402;2022-08-19T06:46:20;25.20;95.30
12013;DHT22;6065;48.138;16.402;2022-08-19T06:48:47;25.20;95.20
12013;DHT22;6065;48.138;16.402;2022-08-19T06:51:14;25.30;95.20
12013;DHT22;6065;48.138;16.402;2022-08-19T06:53:43;25.30;95.20
12013;DHT22;6065;48.138;16.402;2022-08-19T06:56:12;25.30;95.20
12013;DHT22;6065;48.138;16.402;2022-08-19T06:58:39;25.30;95.20
12013;DHT22;6065;48.138;16.402;2022-08-19T07:01:07;25.30;95.20
12013;DHT22;6065;48.138;16.402;2022-08-19T07:03:35;25.40;95.20
12013;DHT22;6065;48.138;16.402;2022-08-19T07:06:02;25.40;95.10
12013;DHT22;6065;48.138;16.402;2022-08-19T07:08:29;25.40;95.10
12013;DHT22;6065;48.138;16.402;2022-08-19T07:10:56;25.40;95.20
12013;DHT22;6065;48.138;16.402;2022-08-19T07:13:23;25.50;95.20
12013;DHT22;6065;48.138;16.402;2022-08-19T07:15:50;25.50;95.20
12013;DHT22;6065;48.138;16.402;2022-08-19T07:18:18;25.50;95.10
12013;DHT22;6065;48.138;16.402;2022-08-19T07:20:46;25.50;95.10
12013;DHT22;6065;48.138;16.402;2022-08-19T07:23:13;25.50;95.00
12013;DHT22;6065;48.138;16.402;2022-08-19T07:25:40;25.60;95.00
12013;DHT22;6065;48.138;16.402;2022-08-19T07:28:06;25.60;94.90
12013;DHT22;6065;48.138;16.402;2022-08-19T07:30:36;25.70;94.90
12013;DHT22;6065;48.138;16.402;2022-08-19T07:33:03;25.70;94.90
12013;DHT22;6065;48.138;16.402;2022-08-19T07:35:31;25.80;94.90
12013;DHT22;6065;48.138;16.402;2022-08-19T07:37:59;25.80;94.80
12013;DHT22;6065;48.138;16.402;2022-08-19T07:40:27;25.90;94.70
12013;DHT22;6065;48.138;16.402;2022-08-19T07:42:54;25.90;94.60
12013;DHT22;6065;48.138;16.402;2022-08-19T07:45:21;26.00;94.50
12013;DHT22;6065;48.138;16.402;2022-08-19T07:47:48;26.10;94.10
12013;DHT22;6065;48.138;16.402;2022-08-19T07:50:15;26.10;94.10
12013;DHT22;6065;48.138;16.402;2022-08-19T07:52:44;26.20;94.10
12013;DHT22;6065;48.138;16.402;2022-08-19T07:55:11;26.20;93.90
12013;DHT22;6065;48.138;16.402;2022-08-19T07:57:38;26.30;94.00
12013;DHT22;6065;48.138;16.402;2022-08-19T08:00:05;26.40;93.80
12013;DHT22;6065;48.138;16.402;2022-08-19T08:02:32;26.50;93.70
12013;DHT22;6065;48.138;16.402;2022-08-19T08:04:59;26.60;93.50
12013;DHT22;6065;48.138;16.402;2022-08-19T08:07:44;26.60;93.50
12013;DHT22;6065;48.138;16.402;2022-08-19T08:10:28;26.60;93.50
12013;DHT22;6065;48.138;16.402;2022-08-19T08:12:55;26.70;93.80
12013;DHT22;6065;48.138;16.402;2022-08-19T08:15:22;26.70;93.50
12013;DHT22;6065;48.138;16.402;2022-08-19T08:17:48;26.80;93.40
12013;DHT22;6065;48.138;16.402;2022-08-19T08:20:16;26.80;93.30
12013;DHT22;6065;48.138;16.402;2022-08-19T08:22:44;26.90;93.30
12013;DHT22;6065;48.138;16.402;2022-08-19T08:25:31;26.90;93.20
12013;DHT22;6065;48.138;16.402;2022-08-19T08:27:58;26.90;93.10
12013;DHT22;6065;48.138;16.402;2022-08-19T08:30:26;27.00;93.00
12013;DHT22;6065;48.138;16.402;2022-08-19T08:32:53;27.00;93.10
12013;DHT22;6065;48.138;16.402;2022-08-19T08:35:20;27.10;92.80
12013;DHT22;6065;48.138;16.402;2022-08-19T08:37:50;27.10;92.70
12013;DHT22;6065;48.138;16.402;2022-08-19T08:40:18;27.20;92.80
12013;DHT22;6065;48.138;16.402;2022-08-19T08:42:46;27.30;92.80
12013;DHT22;6065;48.138;16.402;2022-08-19T08:45:18;27.30;92.70
12013;DHT22;6065;48.138;16.402;2022-08-19T08:47:47;27.40;92.60
12013;DHT22;6065;48.138;16.402;2022-08-19T08:50:15;27.40;92.70
12013;DHT22;6065;48.138;16.402;2022-08-19T08:52:45;27.40;92.50
12013;DHT22;6065;48.138;16.402;2022-08-19T08:55:15;27.50;92.30
12013;DHT22;6065;48.138;16.402;2022-08-19T08:57:49;27.40;92.20
12013;DHT22;6065;48.138;16.402;2022-08-19T09:00:21;27.40;92.20
12013;DHT22;6065;48.138;16.402;2022-08-19T09:02:49;27.50;92.10
12013;DHT22;6065;48.138;16.402;2022-08-19T09:05:16;27.60;92.00
12013;DHT22;6065;48.138;16.402;2022-08-19T09:07:46;27.60;91.90
12013;DHT22;6065;48.138;16.402;2022-08-19T09:10:19;27.70;91.80
12013;DHT22;6065;48.138;16.402;2022-08-19T09:12:52;27.70;91.50
12013;DHT22;6065;48.138;16.402;2022-08-19T09:15:22;27.70;91.70
12013;DHT22;6065;48.138;16.402;2022-08-19T09:17:54;27.80;91.70
12013;DHT22;6065;48.138;16.402;2022-08-19T09:20:27;27.90;91.80
12013;DHT22;6065;48.138;16.402;2022-08-19T09:22:54;28.00;91.70
12013;DHT22;6065;48.138;16.402;2022-08-19T09:25:22;28.10;91.50
12013;DHT22;6065;48.138;16.402;2022-08-19T09:27:49;28.20;91.70
12013;DHT22;6065;48.138;16.402;2022-08-19T09:30:18;28.30;91.30
12013;DHT22;6065;48.138;16.402;2022-08-19T09:32:45;28.40;91.40
12013;DHT22;6065;48.138;16.402;2022-08-19T09:35:12;28.40;91.00
12013;DHT22;6065;48.138;16.402;2022-08-19T09:37:39;28.50;90.60
12013;DHT22;6065;48.138;16.402;2022-08-19T09:40:06;28.60;90.70
12013;DHT22;6065;48.138;16.402;2022-08-19T09:42:34;28.60;88.90
12013;DHT22;6065;48.138;16.402;2022-08-19T09:45:01;28.70;88.60
12013;DHT22;6065;48.138;16.402;2022-08-19T09:47:28;28.70;89.40
12013;DHT22;6065;48.138;16.402;2022-08-19T09:49:55;28.80;90.20
12013;DHT22;6065;48.138;16.402;2022-08-19T09:52:23;29.00;90.00
12013;DHT22;6065;48.138;16.402;2022-08-19T09:54:51;29.10;90.10
12013;DHT22;6065;48.138;16.402;2022-08-19T09:57:18;29.20;90.00
12013;DHT22;6065;48.138;16.402;2022-08-19T09:59:46;29.30;89.40
12013;DHT22;6065;48.138;16.402;2022-08-19T10:02:13;29.40;89.20
12013;DHT22;6065;48.138;16.402;2022-08-19T10:04:40;29.40;87.10
12013;DHT22;6065;48.138;16.402;2022-08-19T10:07:24;29.40;85.00
12013;DHT22;6065;48.138;16.402;2022-08-19T10:09:51;29.40;83.90
12013;DHT22;6065;48.138;16.402;2022-08-19T10:12:17;29.30;85.20
12013;DHT22;6065;48.138;16.402;2022-08-19T10:14:45;29.30;85.30
12013;DHT22;6065;48.138;16.402;2022-08-19T10:17:13;29.30;85.20
12013;DHT22;6065;48.138;16.402;2022-08-19T10:19:39;29.20;85.10
12013;DHT22;6065;48.138;16.402;2022-08-19T10:22:06;29.20;85.20
12013;DHT22;6065;48.138;16.402;2022-08-19T10:24:33;29.20;85.50
12013;DHT22;6065;48.138;16.402;2022-08-19T10:27:01;29.20;85.80
12013;DHT22;6065;48.138;16.402;2022-08-19T10:29:29;29.20;86.00
12013;DHT22;6065;48.138;16.402;2022-08-19T10:31:58;29.20;86.80
12013;DHT22;6065;48.138;16.402;2022-08-19T10:34:25;29.10;86.70
12013;DHT22;6065;48.138;16.402;2022-08-19T10:36:52;29.10;85.50
12013;DHT22;6065;48.138;16.402;2022-08-19T10:39:19;29.10;85.40
12013;DHT22;6065;48.138;16.402;2022-08-19T10:41:46;29.00;85.80
12013;DHT22;6065;48.138;16.402;2022-08-19T10:44:12;29.00;86.00
12013;DHT22;6065;48.138;16.402;2022-08-19T10:46:41;28.90;86.70
12013;DHT22;6065;48.138;16.402;2022-08-19T10:49:11;28.90;86.70
12013;DHT22;6065;48.138;16.402;2022-08-19T10:51:38;28.90;87.20
12013;DHT22;6065;48.138;16.402;2022-08-19T10:54:22;28.90;88.40
12013;DHT22;6065;48.138;16.402;2022-08-19T10:57:09;28.80;87.80
12013;DHT22;6065;48.138;16.402;2022-08-19T10:59:35;28.70;87.40
12013;DHT22;6065;48.138;16.402;2022-08-19T11:02:03;28.70;87.80
12013;DHT22;6065;48.138;16.402;2022-08-19T11:04:31;28.60;87.70
12013;DHT22;6065;48.138;16.402;2022-08-19T11:06:58;28.60;88.40
12013;DHT22;6065;48.138;16.402;2022-08-19T11:09:25;28.50;90.00
12013;DHT22;6065;48.138;16.402;2022-08-19T11:11:52;28.50;90.40
12013;DHT22;6065;48.138;16.402;2022-08-19T11:14:20;28.40;91.50
12013;DHT22;6065;48.138;16.402;2022-08-19T11:16:47;28.30;92.10
12013;DHT22;6065;48.138;16.402;2022-08-19T11:19:14;28.30;92.20
12013;DHT22;6065;48.138;16.402;2022-08-19T11:21:46;28.20;92.40
12013;DHT22;6065;48.138;16.402;2022-08-19T11:24:14;28.20;91.80
12013;DHT22;6065;48.138;16.402;2022-08-19T11:26:42;28.10;91.70
12013;DHT22;6065;48.138;16.402;2022-08-19T11:29:10;28.00;91.40
12013;DHT22;6065;48.138;16.402;2022-08-19T11:31:38;28.10;91.60
12013;DHT22;6065;48.138;16.402;2022-08-19T11:34:07;28.30;91.60
12013;DHT22;6065;48.138;16.402;2022-08-19T11:36:34;28.50;90.40
12013;DHT22;6065;48.138;16.402;2022-08-19T11:39:04;28.70;90.60
12013;DHT22;6065;48.138;16.402;2022-08-19T11:41:31;28.90;89.70
12013;DHT22;6065;48.138;16.402;2022-08-19T11:43:58;29.00;88.20
12013;DHT22;6065;48.138;16.402;2022-08-19T11:46:26;29.00;88.20
12013;DHT22;6065;48.138;16.402;2022-08-19T11:48:54;29.00;87.80
12013;DHT22;6065;48.138;16.402;2022-08-19T11:51:23;29.10;88.20
12013;DHT22;6065;48.138;16.402;2022-08-19T11:53:50;29.30;88.10
12013;DHT22;6065;48.138;16.402;2022-08-19T11:56:18;29.40;88.20
12013;DHT22;6065;48.138;16.402;2022-08-19T11:58:55;29.50;88.20
12013;DHT22;6065;48.138;16.402;2022-08-19T12:01:23;29.80;87.90
12013;DHT22;6065;48.138;16.402;2022-08-19T12:03:52;30.10;87.80
12013;DHT22;6065;48.138;16.402;2022-08-19T12:06:21;30.10;87.50
12013;DHT22;6065;48.138;16.402;2022-08-19T12:08:51;30.10;88.60
12013;DHT22;6065;48.138;16.402;2022-08-19T12:11:20;30.00;88.10
12013;DHT22;6065;48.138;16.402;2022-08-19T12:13:47;30.00;87.80
12013;DHT22;6065;48.138;16.402;2022-08-19T12:16:14;29.90;87.90
12013;DHT22;6065;48.138;16.402;2022-08-19T12:18:42;29.90;88.50
12013;DHT22;6065;48.138;16.402;2022-08-19T12:21:09;29.90;89.00
12013;DHT22;6065;48.138;16.402;2022-08-19T12:23:39;30.00;88.90
12013;DHT22;6065;48.138;16.402;2022-08-19T12:26:05;30.10;89.60
12013;DHT22;6065;48.138;16.402;2022-08-19T12:28:34;30.20;88.40
12013;DHT22;6065;48.138;16.402;2022-08-19T12:31:01;30.30;88.40
12013;DHT22;6065;48.138;16.402;2022-08-19T12:33:28;30.30;88.40
12013;DHT22;6065;48.138;16.402;2022-08-19T12:35:54;30.20;88.80
12013;DHT22;6065;48.138;16.402;2022-08-19T12:38:21;30.10;87.20
12013;DHT22;6065;48.138;16.402;2022-08-19T12:40:49;29.90;87.80
12013;DHT22;6065;48.138;16.402;2022-08-19T12:43:17;29.80;88.20
12013;DHT22;6065;48.138;16.402;2022-08-19T12:45:46;29.60;88.10
12013;DHT22;6065;48.138;16.402;2022-08-19T12:48:13;29.50;88.60
12013;DHT22;6065;48.138;16.402;2022-08-19T12:50:40;29.40;90.20
12013;DHT22;6065;48.138;16.402;2022-08-19T12:53:06;29.30;90.20
12013;DHT22;6065;48.138;16.402;2022-08-19T12:55:33;29.30;90.70
12013;DHT22;6065;48.138;16.402;2022-08-19T12:58:00;29.10;90.20
12013;DHT22;6065;48.138;16.402;2022-08-19T13:00:27;29.00;90.30
12013;DHT22;6065;48.138;16.402;2022-08-19T13:02:56;28.90;90.50
12013;DHT22;6065;48.138;16.402;2022-08-19T13:05:24;28.90;89.60
12013;DHT22;6065;48.138;16.402;2022-08-19T13:07:52;28.90;88.20
12013;DHT22;6065;48.138;16.402;2022-08-19T13:10:21;28.80;88.00
12013;DHT22;6065;48.138;16.402;2022-08-19T13:12:49;28.80;88.20
12013;DHT22;6065;48.138;16.402;2022-08-19T13:15:16;28.80;88.40
12013;DHT22;6065;48.138;16.402;2022-08-19T13:17:45;28.80;88.60
12013;DHT22;6065;48.138;16.402;2022-08-19T13:20:14;28.70;89.20
12013;DHT22;6065;48.138;16.402;2022-08-19T13:22:42;28.80;90.00
12013;DHT22;6065;48.138;16.402;2022-08-19T13:25:10;28.70;89.60
12013;DHT22;6065;48.138;16.402;2022-08-19T13:27:37;28.70;89.70
12013;DHT22;6065;48.138;16.402;2022-08-19T13:30:04;28.60;90.00
12013;DHT22;6065;48.138;16.402;2022-08-19T13:32:49;28.60;89.20
12013;DHT22;6065;48.138;16.402;2022-08-19T13:35:35;28.50;89.90
12013;DHT22;6065;48.138;16.402;2022-08-19T13:38:01;28.50;90.40
12013;DHT22;6065;48.138;16.402;2022-08-19T13:40:30;28.40;91.00
12013;DHT22;6065;48.138;16.402;2022-08-19T13:42:58;28.30;91.30
12013;DHT22;6065;48.138;16.402;2022-08-19T13:45:26;28.20;91.50
12013;DHT22;6065;48.138;16.402;2022-08-19T13:47:54;28.10;91.70
12013;DHT22;6065;48.138;16.402;2022-08-19T13:50:22;27.90;92.50
12013;DHT22;6065;48.138;16.402;2022-08-19T13:52:51;27.80;92.70
12013;DHT22;6065;48.138;16.402;2022-08-19T13:55:18;27.80;92.80
12013;DHT22;6065;48.138;16.402;2022-08-19T13:57:45;27.80;92.50
12013;DHT22;6065;48.138;16.402;2022-08-19T14:00:14;27.80;92.20
12013;DHT22;6065;48.138;16.402;2022-08-19T14:02:43;27.70;92.30
12013;DHT22;6065;48.138;16.402;2022-08-19T14:05:11;27.80;92.70
12013;DHT22;6065;48.138;16.402;2022-08-19T14:07:37;27.80;93.20
12013;DHT22;6065;48.138;16.402;2022-08-19T14:10:07;27.70;93.00
12013;DHT22;6065;48.138;16.402;2022-08-19T14:12:35;27.80;93.20
12013;DHT22;6065;48.138;16.402;2022-08-19T14:15:02;27.80;93.00
12013;DHT22;6065;48.138;16.402;2022-08-19T14:17:29;27.80;92.90
12013;DHT22;6065;48.138;16.402;2022-08-19T14:19:56;27.90;92.90
12013;DHT22;6065;48.138;16.402;2022-08-19T14:22:22;28.00;93.00
12013;DHT22;6065;48.138;16.402;2022-08-19T14:24:49;28.10;92.70
12013;DHT22;6065;48.138;16.402;2022-08-19T14:27:17;28.20;92.20
12013;DHT22;6065;48.138;16.402;2022-08-19T14:29:44;28.20;92.00
12013;DHT22;6065;48.138;16.402;2022-08-19T14:32:11;28.30;92.40
12013;DHT22;6065;48.138;16.402;2022-08-19T14:34:38;28.40;92.30
12013;DHT22;6065;48.138;16.402;2022-08-19T14:37:04;28.40;92.30
12013;DHT22;6065;48.138;16.402;2022-08-19T14:39:31;28.30;91.00
12013;DHT22;6065;48.138;16.402;2022-08-19T14:41:58;28.30;88.40
12013;DHT22;6065;48.138;16.402;2022-08-19T14:44:26;28.20;89.40
12013;DHT22;6065;48.138;16.402;2022-08-19T14:46:53;28.10;90.10
12013;DHT22;6065;48.138;16.402;2022-08-19T14:49:20;28.10;90.30
12013;DHT22;6065;48.138;16.402;2022-08-19T14:51:47;28.10;90.30
12013;DHT22;6065;48.138;16.402;2022-08-19T14:54:14;28.10;90.00
12013;DHT22;6065;48.138;16.402;2022-08-19T14:56:41;28.10;88.30
12013;DHT22;6065;48.138;16.402;2022-08-19T14:59:08;28.10;88.20
12013;DHT22;6065;48.138;16.402;2022-08-19T15:01:36;28.10;88.20
12013;DHT22;6065;48.138;16.402;2022-08-19T15:04:03;28.20;87.80
12013;DHT22;6065;48.138;16.402;2022-08-19T15:06:30;28.20;87.50
12013;DHT22;6065;48.138;16.402;2022-08-19T15:08:57;28.20;87.70
12013;DHT22;6065;48.138;16.402;2022-08-19T15:11:24;28.20;88.30
12013;DHT22;6065;48.138;16.402;2022-08-19T15:13:53;28.30;88.00
12013;DHT22;6065;48.138;16.402;2022-08-19T15:16:20;28.30;87.40
12013;DHT22;6065;48.138;16.402;2022-08-19T15:18:52;28.30;87.80
12013;DHT22;6065;48.138;16.402;2022-08-19T15:21:19;28.30;87.20
12013;DHT22;6065;48.138;16.402;2022-08-19T15:23:46;28.40;87.00
12013;DHT22;6065;48.138;16.402;2022-08-19T15:26:13;28.40;87.50
12013;DHT22;6065;48.138;16.402;2022-08-19T15:28:40;28.40;87.70
12013;DHT22;6065;48.138;16.402;2022-08-19T15:31:07;28.40;87.70
12013;DHT22;6065;48.138;16.402;2022-08-19T15:33:36;28.30;87.80
12013;DHT22;6065;48.138;16.402;2022-08-19T15:36:05;28.30;87.70